Time;durP1;ratioP1;P1;durP2;ratioP2;P2;SDS_P1;SDS_P2;PMS_P1;PMS_P2;Temp;Humidity;BMP_temperature;BMP_pressure;BME280_temperature;BME280_humidity;BME280_pressure;Samples;Min_cycle;Max_cycle;Signal;HPM_P1;HPM_P2
2023/01/13 00:02:17;;;;;;;3.90;0.80;;;;;7.40;93638.00;;;;7394353;19;20485;-75
2023/01/13 00:04:52;;;;;;;0.60;0.40;;;;;7.40;93648.00;;;;7399564;19;20594;-74
2023/01/13 00:07:22;;;;;;;2.23;0.60;;;;;7.50;93642.00;;;;7397572;19;20153;-74
2023/01/13 00:10:09;;;;;;;1.50;0.63;;;;;7.40;93640.00;;;;7397756;19;20127;-75
2023/01/13 00:12:42;;;;;;;1.70;0.50;;;;;7.50;93640.00;;;;7397598;19;20136;-74
2023/01/13 00:15:17;;;;;;;1.37;0.60;;;;;7.70;93629.00;;;;7396303;19;20535;-74
2023/01/13 00:17:52;;;;;;;2.63;0.70;;;;;7.70;93635.00;;;;7398515;19;20117;-75
2023/01/13 00:20:20;;;;;;;2.83;0.50;;;;;7.70;93631.00;;;;7396383;19;20196;-75
2023/01/13 00:22:55;;;;;;;1.73;0.60;;;;;7.70;93635.00;;;;7398273;19;20596;-75
2023/01/13 00:25:22;;;;;;;0.73;0.50;;;;;7.60;93626.00;;;;7397754;19;20533;-74
2023/01/13 00:27:56;;;;;;;1.23;0.73;;;;;7.80;93629.00;;;;7397911;19;20602;-74
2023/01/13 00:30:32;;;;;;;0.70;0.40;;;;;7.80;93624.00;;;;7396201;19;20152;-74
2023/01/13 00:33:07;;;;;;;1.43;0.50;;;;;8.00;93605.00;;;;7396234;19;20481;-73
2023/01/13 00:35:42;;;;;;;0.63;0.40;;;;;7.90;93599.00;;;;7397798;19;20614;-75
2023/01/13 00:38:10;;;;;;;1.73;0.67;;;;;7.90;93601.00;;;;7397010;19;20242;-73
2023/01/13 00:40:44;;;;;;;1.03;0.33;;;;;7.90;93587.00;;;;7397519;19;20137;-72
2023/01/13 00:43:22;;;;;;;0.77;0.33;;;;;8.00;93602.00;;;;7397713;19;20200;-72
2023/01/13 00:45:57;;;;;;;3.10;0.50;;;;;7.90;93606.00;;;;7405535;19;20132;-72
2023/01/13 00:48:37;;;;;;;1.70;0.50;;;;;7.90;93603.00;;;;7395726;19;20132;-72
2023/01/13 00:51:18;;;;;;;1.80;0.60;;;;;7.80;93595.00;;;;7393931;19;20128;-72
2023/01/13 00:53:48;;;;;;;2.63;0.60;;;;;7.80;93602.00;;;;7404659;19;20150;-72
2023/01/13 00:56:24;;;;;;;0.90;0.50;;;;;7.80;93599.00;;;;7404531;19;20140;-72
2023/01/13 00:59:09;;;;;;;1.63;0.50;;;;;7.70;93596.00;;;;7403257;19;20154;-72
2023/01/13 01:01:43;;;;;;;2.93;0.77;;;;;7.50;93595.00;;;;7402959;19;20148;-72
2023/01/13 01:04:17;;;;;;;1.10;0.60;;;;;7.60;93595.00;;;;7403499;19;20148;-72
2023/01/13 01:06:44;;;;;;;0.73;0.53;;;;;7.60;93596.00;;;;7404923;19;20125;-72
2023/01/13 01:09:31;;;;;;;0.83;0.60;;;;;7.60;93597.00;;;;7402329;19;20156;-72
2023/01/13 01:12:06;;;;;;;3.23;0.50;;;;;7.50;93589.00;;;;7400119;19;20535;-72
2023/01/13 01:14:35;;;;;;;2.93;0.93;;;;;7.40;93581.00;;;;7404188;19;20117;-72
2023/01/13 01:17:11;;;;;;;1.30;0.50;;;;;7.40;93578.00;;;;7403049;19;20215;-72
2023/01/13 01:19:38;;;;;;;3.23;1.30;;;;;7.40;93596.00;;;;7403223;19;20475;-72
2023/01/13 01:22:14;;;;;;;3.87;1.80;;;;;7.50;93603.00;;;;7404002;19;20158;-72
2023/01/13 01:24:48;;;;;;;2.17;1.33;;;;;7.40;93605.00;;;;7404343;19;20156;-72
2023/01/13 01:27:16;;;;;;;0.50;0.40;;;;;7.20;93603.00;;;;7402635;19;20125;-73
2023/01/13 01:29:49;;;;;;;2.13;1.50;;;;;7.40;93605.00;;;;7402940;19;20133;-72
2023/01/13 01:32:24;;;;;;;3.90;1.20;;;;;7.30;93609.00;;;;7400786;19;20121;-72
2023/01/13 01:34:54;;;;;;;1.07;0.40;;;;;7.20;93594.00;;;;7402683;19;20797;-71
2023/01/13 01:37:29;;;;;;;0.97;0.60;;;;;7.20;93593.00;;;;7402670;19;20140;-72
2023/01/13 01:40:05;;;;;;;1.43;0.70;;;;;7.00;93609.00;;;;7402840;19;20124;-72
2023/01/13 01:45:36;;;;;;;2.17;0.70;;;;;7.10;93599.00;;;;7403013;19;20154;-72
2023/01/13 01:48:12;;;;;;;1.60;0.70;;;;;7.10;93598.00;;;;7401854;19;20132;-71
2023/01/13 01:50:44;;;;;;;0.50;0.40;;;;;7.00;93589.00;;;;7402528;19;20624;-72
2023/01/13 01:53:22;;;;;;;1.50;0.60;;;;;7.10;93600.00;;;;7401311;19;20639;-72
2023/01/13 01:56:00;;;;;;;1.57;0.60;;;;;7.10;93590.00;;;;7398153;19;20162;-72
2023/01/13 01:58:44;;;;;;;1.23;0.60;;;;;7.00;93584.00;;;;7401882;19;20215;-72
2023/01/13 02:01:19;;;;;;;3.57;0.83;;;;;6.90;93589.00;;;;7402614;19;20156;-72
2023/01/13 02:04:22;;;;;;;3.20;0.50;;;;;6.90;93596.00;;;;7400417;19;20129;-81
2023/01/13 02:06:57;;;;;;;0.50;0.50;;;;;6.80;93586.00;;;;7408706;19;20144;-79
2023/01/13 02:09:32;;;;;;;0.90;0.50;;;;;6.80;93583.00;;;;7402886;19;20177;-78
2023/01/13 02:14:52;;;;;;;1.47;0.70;;;;;6.70;93579.00;;;;7403690;19;20217;-79
2023/01/13 02:17:31;;;;;;;1.30;0.60;;;;;6.60;93582.00;;;;7403093;19;20137;-79
2023/01/13 02:20:34;;;;;;;0.90;0.73;;;;;6.60;93588.00;;;;7402811;19;20117;-77
2023/01/13 02:27:03;;;;;;;2.90;0.63;;;;;6.50;93565.00;;;;7401133;19;20124;-76
2023/01/13 02:33:13;;;;;;;2.10;0.60;;;;;6.30;93568.00;;;;7396694;19;20160;-74
2023/01/13 02:35:56;;;;;;;1.47;1.07;;;;;6.40;93569.00;;;;7400611;19;20602;-77
2023/01/13 02:38:33;;;;;;;2.13;0.67;;;;;6.20;93577.00;;;;7400541;19;20154;-76
2023/01/13 02:44:24;;;;;;;2.60;0.77;;;;;6.30;93562.00;;;;7399757;19;20152;-75
2023/01/13 02:47:09;;;;;;;1.90;0.90;;;;;6.20;93561.00;;;;7400697;19;20187;-77
2023/01/13 02:50:09;;;;;;;1.67;0.80;;;;;6.20;93555.00;;;;7399659;19;20514;-76
2023/01/13 02:52:47;;;;;;;3.40;0.90;;;;;6.20;93552.00;;;;7398372;19;20472;-76
2023/01/13 02:55:29;;;;;;;3.73;0.80;;;;;6.20;93538.00;;;;7398006;19;20175;-77
2023/01/13 02:58:02;;;;;;;3.00;0.97;;;;;6.40;93546.00;;;;7398565;19;20643;-74
2023/01/13 03:00:36;;;;;;;2.57;1.00;;;;;6.30;93538.00;;;;7398410;19;20157;-76
2023/01/13 03:03:10;;;;;;;1.13;0.77;;;;;6.20;93545.00;;;;7398552;19;20176;-76
2023/01/13 03:05:48;;;;;;;1.30;0.70;;;;;6.10;93539.00;;;;7398039;19;20204;-75
2023/01/13 03:08:38;;;;;;;3.33;1.00;;;;;6.20;93542.00;;;;7398838;19;20197;-76
2023/01/13 03:11:17;;;;;;;3.33;1.13;;;;;6.00;93539.00;;;;7397841;19;20200;-77
2023/01/13 03:13:57;;;;;;;3.60;1.17;;;;;6.20;93541.00;;;;7398262;19;20635;-77
2023/01/13 03:16:47;;;;;;;1.20;0.80;;;;;6.20;93530.00;;;;7398542;19;20217;-76
2023/01/13 03:19:37;;;;;;;1.87;0.90;;;;;6.20;93539.00;;;;7395752;19;20157;-75
2023/01/13 03:22:21;;;;;;;2.20;1.00;;;;;6.20;93532.00;;;;7398774;19;20484;-75
2023/01/13 03:25:06;;;;;;;2.13;0.90;;;;;6.20;93523.00;;;;7397936;19;20549;-76
2023/01/13 03:27:58;;;;;;;2.77;0.93;;;;;6.30;93522.00;;;;7398209;19;20145;-76
2023/01/13 03:30:43;;;;;;;4.07;1.13;;;;;6.30;93510.00;;;;7398288;19;20152;-74
2023/01/13 03:33:50;;;;;;;2.80;0.80;;;;;6.30;93505.00;;;;7396287;19;20131;-76
2023/01/13 03:36:26;;;;;;;1.33;0.80;;;;;6.10;93497.00;;;;7398995;19;20129;-76
2023/01/13 03:39:09;;;;;;;3.13;1.00;;;;;6.10;93494.00;;;;7399785;19;20593;-76
2023/01/13 03:41:56;;;;;;;0.80;0.70;;;;;6.20;93494.00;;;;7399556;19;20667;-76
2023/01/13 03:44:54;;;;;;;3.03;0.90;;;;;6.20;93488.00;;;;7397607;19;20129;-77
2023/01/13 03:47:38;;;;;;;2.03;1.13;;;;;6.00;93488.00;;;;7396471;19;20153;-77
2023/01/13 03:50:13;;;;;;;1.53;1.00;;;;;6.10;93479.00;;;;7397852;19;20207;-77
2023/01/13 03:52:58;;;;;;;3.20;1.00;;;;;6.20;93477.00;;;;7396075;19;20129;-76
2023/01/13 03:55:32;;;;;;;2.00;0.97;;;;;6.20;93471.00;;;;7397477;19;20206;-77
2023/01/13 03:58:18;;;;;;;1.93;0.73;;;;;6.20;93471.00;;;;7397958;19;20199;-75
2023/01/13 04:01:12;;;;;;;2.77;0.90;;;;;6.20;93469.00;;;;7399928;19;20203;-76
2023/01/13 04:04:14;;;;;;;1.87;1.00;;;;;6.40;93469.00;;;;7395691;19;20176;-75
2023/01/13 04:06:55;;;;;;;2.40;0.80;;;;;6.30;93465.00;;;;7397192;19;20203;-76
2023/01/13 04:09:30;;;;;;;1.60;0.73;;;;;6.30;93464.00;;;;7397006;19;20125;-76
2023/01/13 04:12:59;;;;;;;2.73;0.90;;;;;6.50;93456.00;;;;7396611;19;20618;-76
2023/01/13 04:15:23;;;;;;;1.30;0.70;;;;;6.50;93459.00;;;;7394576;19;20133;-76
2023/01/13 04:17:51;;;;;;;1.60;0.67;;;;;6.50;93458.00;;;;7397113;19;20471;-77
2023/01/13 04:20:25;;;;;;;3.20;1.30;;;;;6.60;93472.00;;;;7397496;19;20227;-78
2023/01/13 04:23:01;;;;;;;6.67;1.60;;;;;6.50;93458.00;;;;7397690;19;20126;-77
2023/01/13 04:25:28;;;;;;;6.87;1.00;;;;;6.60;93459.00;;;;7396899;19;20154;-77
2023/01/13 04:28:03;;;;;;;3.13;0.90;;;;;6.50;93457.00;;;;7397367;19;20226;-77
2023/01/13 04:30:37;;;;;;;3.47;0.73;;;;;6.60;93451.00;;;;7398194;19;20505;-76
2023/01/13 04:33:13;;;;;;;0.83;0.60;;;;;6.50;93451.00;;;;7396034;19;20168;-77
2023/01/13 04:35:42;;;;;;;2.57;0.60;;;;;6.60;93450.00;;;;7396113;19;20129;-77
2023/01/13 04:38:18;;;;;;;1.77;0.50;;;;;6.90;93447.00;;;;7398251;19;20128;-79
2023/01/13 04:40:47;;;;;;;0.97;0.70;;;;;6.60;93447.00;;;;7395969;19;20187;-78
2023/01/13 04:43:21;;;;;;;1.73;0.77;;;;;6.60;93438.00;;;;7396560;19;20549;-77
2023/01/13 04:45:49;;;;;;;2.77;1.00;;;;;6.60;93441.00;;;;7396088;19;20133;-79
2023/01/13 04:48:16;;;;;;;1.17;0.70;;;;;6.60;93449.00;;;;7398475;19;20132;-77
2023/01/13 04:50:50;;;;;;;0.80;0.53;;;;;6.50;93443.00;;;;7397627;19;20160;-77
2023/01/13 04:53:18;;;;;;;0.83;0.60;;;;;6.60;93444.00;;;;7394456;19;20603;-78
2023/01/13 04:55:51;;;;;;;1.97;0.63;;;;;6.70;93437.00;;;;7397232;19;20565;-78
2023/01/13 04:58:19;;;;;;;0.87;0.50;;;;;6.60;93439.00;;;;7396438;19;20151;-78
2023/01/13 05:00:54;;;;;;;1.60;0.57;;;;;6.70;93439.00;;;;7397325;19;20133;-78
2023/01/13 05:03:35;;;;;;;4.20;0.70;;;;;6.60;93447.00;;;;7395795;19;20171;-79
2023/01/13 05:06:16;;;;;;;2.20;0.60;;;;;6.70;93429.00;;;;7396750;19;20121;-77
2023/01/13 05:08:50;;;;;;;1.13;0.70;;;;;6.80;93428.00;;;;7395347;19;20514;-76
2023/01/13 05:17:19;;;;;;;1.57;0.50;;;;;7.00;93426.00;;;;7396158;19;20137;-79
2023/01/13 05:19:46;;;;;;;0.73;0.57;;;;;6.90;93415.00;;;;7395280;19;20172;-80
2023/01/13 05:25:24;;;;;;;0.20;0.20;;;;;6.90;93415.00;;;;7395129;19;20145;-79
2023/01/13 05:27:59;;;;;;;0.17;0.17;;;;;7.10;93419.00;;;;7395809;19;20148;-78
2023/01/13 05:30:37;;;;;;;0.47;0.30;;;;;7.00;93403.00;;;;7402481;19;20146;-78
2023/01/13 05:33:13;;;;;;;0.53;0.30;;;;;6.90;93408.00;;;;7400525;19;20155;-78
2023/01/13 05:35:43;;;;;;;1.47;0.40;;;;;6.90;93409.00;;;;7403444;19;20468;-77
2023/01/13 05:38:18;;;;;;;1.53;0.40;;;;;7.00;93416.00;;;;7402304;19;20196;-79
2023/01/13 05:43:38;;;;;;;3.07;0.50;;;;;7.10;93422.00;;;;7401505;19;20145;-78
2023/01/13 05:46:08;;;;;;;0.27;0.20;;;;;7.10;93427.00;;;;7401831;19;20133;-78
2023/01/13 05:48:42;;;;;;;0.20;0.20;;;;;6.90;93413.00;;;;7401689;19;20149;-79
2023/01/13 05:51:13;;;;;;;0.37;0.33;;;;;7.00;93431.00;;;;7401770;19;20196;-79
2023/01/13 05:53:46;;;;;;;1.30;0.23;;;;;6.90;93423.00;;;;7400269;19;20135;-78
2023/01/13 05:56:16;;;;;;;0.40;0.23;;;;;7.00;93423.00;;;;7401664;19;20515;-80
2023/01/13 05:58:49;;;;;;;0.30;0.20;;;;;7.10;93432.00;;;;7401338;19;20172;-78
2023/01/13 06:01:23;;;;;;;0.77;0.23;;;;;7.20;93428.00;;;;7401087;19;20167;-78
2023/01/13 06:03:51;;;;;;;0.80;0.20;;;;;7.20;93432.00;;;;7400177;19;20200;-79
2023/01/13 06:06:25;;;;;;;0.40;0.27;;;;;7.00;93439.00;;;;7402819;19;20132;-78
2023/01/13 06:09:02;;;;;;;0.50;0.33;;;;;7.20;93436.00;;;;7391890;19;20208;-77
2023/01/13 06:11:29;;;;;;;0.57;0.33;;;;;7.30;93445.00;;;;7401370;19;20136;-76
2023/01/13 06:13:57;;;;;;;1.37;0.47;;;;;7.20;93431.00;;;;7395697;19;20137;-76
2023/01/13 06:16:31;;;;;;;0.40;0.40;;;;;7.30;93428.00;;;;7400233;19;20143;-79
2023/01/13 06:18:59;;;;;;;0.77;0.20;;;;;7.20;93416.00;;;;7401477;19;20136;-79
2023/01/13 06:21:34;;;;;;;0.43;0.20;;;;;7.20;93423.00;;;;7401672;19;20133;-77
2023/01/13 06:24:09;;;;;;;0.83;0.30;;;;;7.10;93424.00;;;;7401536;19;20614;-76
2023/01/13 06:26:43;;;;;;;0.20;0.20;;;;;7.30;93421.00;;;;7400190;19;20125;-77
2023/01/13 06:29:13;;;;;;;0.20;0.20;;;;;7.40;93410.00;;;;7398998;19;20167;-77
2023/01/13 06:31:47;;;;;;;1.40;0.33;;;;;7.30;93418.00;;;;7399726;19;20165;-77
2023/01/13 06:34:21;;;;;;;0.33;0.10;;;;;7.40;93410.00;;;;7401777;19;20129;-77
2023/01/13 06:36:52;;;;;;;0.37;0.30;;;;;7.40;93414.00;;;;7401790;19;20547;-78
2023/01/13 06:39:29;;;;;;;0.10;0.10;;;;;7.40;93414.00;;;;7399894;19;20483;-77
2023/01/13 06:44:56;;;;;;;0.37;0.30;;;;;7.20;93413.00;;;;7400442;19;20148;-76
2023/01/13 06:47:26;;;;;;;0.20;0.20;;;;;7.20;93414.00;;;;7399100;19;20160;-76
2023/01/13 06:50:06;;;;;;;0.80;0.30;;;;;7.20;93415.00;;;;7398963;19;20156;-75
2023/01/13 06:52:40;;;;;;;0.17;0.17;;;;;7.20;93414.00;;;;7398247;19;20137;-75
2023/01/13 06:55:07;;;;;;;0.77;0.20;;;;;7.10;93415.00;;;;7400227;19;20133;-77
2023/01/13 06:57:49;;;;;;;0.20;0.20;;;;;7.30;93416.00;;;;7401475;19;20129;-76
2023/01/13 07:00:26;;;;;;;0.67;0.20;;;;;7.30;93413.00;;;;7400463;19;20153;-76
2023/01/13 07:03:08;;;;;;;0.57;0.10;;;;;7.30;93404.00;;;;7397230;19;20172;-76
2023/01/13 07:05:37;;;;;;;1.17;0.20;;;;;7.30;93424.00;;;;7400520;19;20157;-78
2023/01/13 07:08:11;;;;;;;0.23;0.20;;;;;7.30;93415.00;;;;7401025;19;20141;-76
2023/01/13 07:10:45;;;;;;;0.40;0.23;;;;;7.40;93440.00;;;;7397582;19;20583;-74
2023/01/13 07:16:07;;;;;;;0.20;0.10;;;;;7.40;93425.00;;;;7399879;19;20184;-74
2023/01/13 07:18:35;;;;;;;0.20;0.20;;;;;7.40;93422.00;;;;7399285;19;20129;-75
2023/01/13 07:21:17;;;;;;;0.10;0.10;;;;;7.50;93441.00;;;;7398921;19;20117;-76
2023/01/13 07:23:51;;;;;;;0.20;0.10;;;;;7.50;93428.00;;;;7398905;19;20129;-76
2023/01/13 07:26:19;;;;;;;0.23;0.23;;;;;7.50;93435.00;;;;7399121;19;20129;-75
2023/01/13 07:28:56;;;;;;;0.10;0.10;;;;;7.60;93421.00;;;;7398561;19;20132;-75
2023/01/13 07:31:31;;;;;;;1.70;0.20;;;;;7.50;93425.00;;;;7396262;19;20152;-75
2023/01/13 07:33:59;;;;;;;1.10;0.10;;;;;7.70;93427.00;;;;7395960;19;20758;-76
2023/01/13 07:36:32;;;;;;;0.13;0.13;;;;;7.70;93433.00;;;;7397613;19;20163;-77
2023/01/13 07:39:06;;;;;;;0.10;0.10;;;;;7.70;93427.00;;;;7396316;19;20212;-77
2023/01/13 07:44:32;;;;;;;0.20;0.10;;;;;7.50;93433.00;;;;7396419;19;20231;-76
2023/01/13 07:47:00;;;;;;;0.30;0.20;;;;;7.50;93447.00;;;;7396854;19;20129;-76
2023/01/13 07:49:34;;;;;;;0.20;0.20;;;;;7.40;93444.00;;;;7395407;19;20177;-75
2023/01/13 07:52:02;;;;;;;0.57;0.20;;;;;7.40;93441.00;;;;7394595;19;20123;-77
2023/01/13 07:54:36;;;;;;;0.30;0.10;;;;;7.30;93447.00;;;;7396179;19;20136;-74
2023/01/13 07:57:08;;;;;;;0.20;0.10;;;;;7.20;93467.00;;;;7396910;19;20133;-73
2023/01/13 07:59:42;;;;;;;0.10;0.10;;;;;7.20;93474.00;;;;7395854;19;20132;-75
2023/01/13 08:02:13;;;;;;;0.07;0.07;;;;;7.20;93489.00;;;;7393090;19;20170;-77
2023/01/13 08:04:53;;;;;;;1.17;0.20;;;;;7.30;93504.00;;;;7391709;19;20476;-75
2023/01/13 08:07:21;;;;;;;1.13;0.20;;;;;7.10;93499.00;;;;7394492;19;21005;-75
2023/01/13 08:09:55;;;;;;;0.10;0.10;;;;;7.00;93505.00;;;;7391583;19;20149;-75
2023/01/13 08:15:23;;;;;;;0.87;0.13;;;;;6.70;93489.00;;;;7390453;19;20232;-75
2023/01/13 08:17:51;;;;;;;0.07;0.07;;;;;6.60;93490.00;;;;7393006;19;20159;-75
2023/01/13 08:20:25;;;;;;;0.47;0.10;;;;;6.50;93515.00;;;;7389938;19;20619;-74
2023/01/13 08:22:59;;;;;;;3.43;0.50;;;;;6.40;93518.00;;;;7391236;19;20170;-77
2023/01/13 08:25:34;;;;;;;0.20;0.03;;;;;6.30;93539.00;;;;7393558;19;20611;-76
2023/01/13 08:28:01;;;;;;;0.10;0.10;;;;;6.10;93533.00;;;;7392546;19;20121;-74
2023/01/13 08:30:36;;;;;;;0.93;0.30;;;;;6.10;93541.00;;;;7390394;19;20506;-76
2023/01/13 08:33:12;;;;;;;0.10;0.10;;;;;6.10;93551.00;;;;7392918;19;20136;-78
2023/01/13 08:35:40;;;;;;;1.03;0.20;;;;;6.00;93568.00;;;;7392461;19;20152;-78
2023/01/13 08:38:08;;;;;;;0.50;0.00;;;;;6.00;93579.00;;;;7393166;19;20667;-75
2023/01/13 08:40:42;;;;;;;0.00;0.00;;;;;6.00;93585.00;;;;7391984;19;20587;-74
2023/01/13 08:43:10;;;;;;;0.30;0.13;;;;;5.50;93596.00;;;;7393054;19;20179;-75
2023/01/13 08:45:44;;;;;;;0.70;0.20;;;;;5.30;93588.00;;;;7396471;19;20199;-75
2023/01/13 08:48:16;;;;;;;0.47;0.30;;;;;5.30;93604.00;;;;7394437;19;20158;-76
2023/01/13 08:50:52;;;;;;;1.70;0.20;;;;;5.20;93606.00;;;;7393557;19;20635;-75
2023/01/13 08:53:26;;;;;;;1.33;0.20;;;;;5.10;93591.00;;;;7390480;19;20129;-75
2023/01/13 08:55:53;;;;;;;0.10;0.10;;;;;5.10;93603.00;;;;7394186;19;20145;-74
2023/01/13 08:58:28;;;;;;;0.20;0.10;;;;;5.10;93596.00;;;;7393085;19;20152;-76
2023/01/13 09:00:55;;;;;;;0.53;0.33;;;;;5.20;93589.00;;;;7392193;19;20263;-76
2023/01/13 09:03:29;;;;;;;1.00;0.20;;;;;5.30;93580.00;;;;7393181;19;20187;-75
2023/01/13 09:06:03;;;;;;;0.20;0.13;;;;;5.30;93578.00;;;;7400784;19;20211;-74
2023/01/13 09:08:37;;;;;;;1.60;0.50;;;;;5.30;93588.00;;;;7399557;19;20150;-74
2023/01/13 09:14:11;;;;;;;0.33;0.20;;;;;5.10;93587.00;;;;7397608;19;20141;-76
2023/01/13 09:16:40;;;;;;;1.47;0.47;;;;;5.10;93601.00;;;;7402550;19;20587;-75
2023/01/13 09:19:14;;;;;;;0.90;0.30;;;;;5.40;93587.00;;;;7400753;19;20165;-76
2023/01/13 09:21:42;;;;;;;1.30;0.40;;;;;5.60;93594.00;;;;7399338;19;20503;-75
2023/01/13 09:24:09;;;;;;;1.33;0.43;;;;;5.70;93599.00;;;;7399952;19;20145;-76
2023/01/13 09:26:44;;;;;;;0.37;0.33;;;;;6.00;93585.00;;;;7399636;19;20235;-75
2023/01/13 09:29:14;;;;;;;1.10;0.60;;;;;6.30;93587.00;;;;7397617;19;20549;-75
2023/01/13 09:31:50;;;;;;;0.93;0.30;;;;;6.30;93595.00;;;;7399125;19;20152;-75
2023/01/13 09:37:11;;;;;;;3.37;0.30;;;;;5.90;93593.00;;;;7399218;19;20159;-76
2023/01/13 09:39:39;;;;;;;2.20;0.57;;;;;5.70;93606.00;;;;7396236;19;20152;-74
2023/01/13 09:45:31;;;;;;;0.47;0.30;;;;;5.70;93620.00;;;;7398056;19;20611;-76
2023/01/13 09:48:19;;;;;;;0.93;0.43;;;;;5.30;93622.00;;;;7398797;19;20212;-76
2023/01/13 09:51:08;;;;;;;3.23;0.60;;;;;5.40;93618.00;;;;7397929;19;20623;-77
2023/01/13 09:54:19;;;;;;;3.13;0.47;;;;;5.40;93622.00;;;;7398268;19;20616;-77
2023/01/13 09:56:53;;;;;;;0.60;0.40;;;;;5.30;93624.00;;;;7399817;19;20142;-77
2023/01/13 09:59:21;;;;;;;3.53;0.40;;;;;5.10;93624.00;;;;7397588;19;20140;-75
2023/01/13 10:02:09;;;;;;;1.87;0.40;;;;;4.90;93624.00;;;;7398691;19;20158;-75
2023/01/13 10:05:15;;;;;;;2.97;0.47;;;;;5.20;93633.00;;;;7395432;19;20914;-76
2023/01/13 10:08:08;;;;;;;2.60;0.70;;;;;5.30;93649.00;;;;7398769;19;20597;-76
2023/01/13 10:10:46;;;;;;;0.93;0.50;;;;;5.30;93643.00;;;;7396803;19;20140;-76
2023/01/13 10:13:19;;;;;;;0.63;0.63;;;;;5.30;93645.00;;;;7394427;19;20618;-76
2023/01/13 10:16:21;;;;;;;4.07;2.00;;;;;5.50;93631.00;;;;7397050;19;20147;-75
2023/01/13 10:19:12;;;;;;;1.80;1.20;;;;;5.30;93653.00;;;;7397150;19;20899;-76
2023/01/13 10:22:17;;;;;;;5.13;1.27;;;;;5.10;93647.00;;;;7396545;19;20141;-75
2023/01/13 10:25:19;;;;;;;2.10;1.67;;;;;5.00;93653.00;;;;7397886;19;20140;-74
2023/01/13 10:28:03;;;;;;;2.17;0.30;;;;;4.70;93658.00;;;;7399247;19;20192;-74
2023/01/13 10:30:40;;;;;;;2.43;0.60;;;;;4.70;93670.00;;;;7399542;19;20133;-73
2023/01/13 10:33:19;;;;;;;0.60;0.43;;;;;4.60;93666.00;;;;7399673;19;20129;-77
2023/01/13 10:36:03;;;;;;;1.10;0.40;;;;;4.40;93676.00;;;;7396523;19;20674;-74
2023/01/13 10:38:45;;;;;;;3.20;0.70;;;;;4.50;93680.00;;;;7399454;19;20121;-74
2023/01/13 10:41:12;;;;;;;1.27;0.57;;;;;4.20;93674.00;;;;7398764;19;20124;-75
2023/01/13 10:44:03;;;;;;;1.37;0.60;;;;;4.30;93687.00;;;;7399494;19;20153;-75
2023/01/13 10:46:52;;;;;;;2.20;0.60;;;;;4.20;93671.00;;;;7397418;19;20161;-74
2023/01/13 10:49:37;;;;;;;4.03;0.90;;;;;4.30;93659.00;;;;7396349;19;20596;-77
2023/01/13 10:52:30;;;;;;;5.27;0.70;;;;;4.20;93666.00;;;;7396452;19;20541;-77
2023/01/13 10:55:26;;;;;;;2.33;0.53;;;;;4.10;93668.00;;;;7395616;19;20136;-78
2023/01/13 10:58:20;;;;;;;2.30;1.00;;;;;4.40;93676.00;;;;7396763;19;20612;-76
2023/01/13 11:01:05;;;;;;;3.17;0.60;;;;;4.40;93668.00;;;;7395257;19;20166;-76
2023/01/13 11:03:48;;;;;;;1.87;0.50;;;;;4.20;93678.00;;;;7394043;19;20192;-75
2023/01/13 11:06:29;;;;;;;3.37;0.80;;;;;4.20;93676.00;;;;7398516;19;20200;-75
2023/01/13 11:09:16;;;;;;;1.13;0.57;;;;;4.20;93681.00;;;;7395794;19;20140;-76
2023/01/13 11:11:46;;;;;;;2.47;0.67;;;;;4.40;93682.00;;;;7397823;19;20137;-76
2023/01/13 11:14:35;;;;;;;2.93;0.77;;;;;4.60;93688.00;;;;7388498;19;20177;-72
2023/01/13 11:17:22;;;;;;;1.60;0.93;;;;;4.20;93666.00;;;;7398895;19;20213;-77
2023/01/13 11:20:38;;;;;;;4.53;1.00;;;;;4.60;93680.00;;;;7395154;19;20133;-78
2023/01/13 11:23:44;;;;;;;7.70;1.23;;;;;5.10;93669.00;;;;7395035;19;20148;-74
2023/01/13 11:26:25;;;;;;;3.27;1.00;;;;;5.40;93671.00;;;;7393037;19;20148;-76
2023/01/13 11:29:16;;;;;;;2.43;0.90;;;;;5.30;93642.00;;;;7397059;19;20137;-76
2023/01/13 11:31:49;;;;;;;2.83;1.07;;;;;5.80;93630.00;;;;7394604;19;20178;-77
2023/01/13 11:34:38;;;;;;;4.33;0.97;;;;;6.60;93636.00;;;;7395911;19;20152;-75
2023/01/13 11:37:35;;;;;;;2.63;0.60;;;;;7.00;93636.00;;;;7394522;19;20157;-75
2023/01/13 11:40:37;;;;;;;3.03;0.87;;;;;6.80;93635.00;;;;7393889;19;20232;-76
2023/01/13 11:43:29;;;;;;;4.30;1.00;;;;;7.30;93641.00;;;;7394767;19;20137;-75
2023/01/13 11:46:08;;;;;;;4.77;1.20;;;;;7.80;93646.00;;;;7395681;19;20125;-74
2023/01/13 11:48:40;;;;;;;4.17;1.33;;;;;8.00;93647.00;;;;7395242;19;20562;-74
2023/01/13 11:51:23;;;;;;;1.97;1.13;;;;;7.50;93654.00;;;;7394181;19;20129;-76
2023/01/13 11:54:18;;;;;;;5.00;1.33;;;;;7.10;93664.00;;;;7390331;19;20184;-74
2023/01/13 11:57:30;;;;;;;15.13;6.47;;;;;6.50;93653.00;;;;7394647;19;20165;-76
2023/01/13 12:00:39;;;;;;;4.97;1.87;;;;;6.90;93664.00;;;;7391949;19;20600;-77
2023/01/13 12:03:58;;;;;;;2.53;0.93;;;;;6.80;93653.00;;;;7391533;19;20543;-76
2023/01/13 12:06:36;;;;;;;1.63;0.90;;;;;6.80;93668.00;;;;7393716;19;20133;-76
2023/01/13 12:09:26;;;;;;;1.90;0.90;;;;;6.20;93687.00;;;;7393265;19;20136;-77
2023/01/13 12:12:21;;;;;;;4.33;1.20;;;;;6.00;93686.00;;;;7392178;19;20925;-74
2023/01/13 12:15:16;;;;;;;3.53;1.10;;;;;5.30;93658.00;;;;7392327;19;20161;-74
2023/01/13 12:18:50;;;;;;;3.10;1.20;;;;;5.40;93688.00;;;;7394950;19;20505;-77
2023/01/13 12:21:26;;;;;;;3.43;0.90;;;;;5.10;93690.00;;;;7390666;19;20183;-75
2023/01/13 12:24:44;;;;;;;7.17;1.43;;;;;5.50;93696.00;;;;7391337;19;20149;-78
2023/01/13 12:27:44;;;;;;;5.23;1.17;;;;;5.90;93679.00;;;;7391114;19;20600;-75
2023/01/13 12:30:35;;;;;;;4.73;1.70;;;;;6.90;93675.00;;;;7389337;19;20152;-75
2023/01/13 12:33:47;;;;;;;7.80;1.47;;;;;6.20;93668.00;;;;7391254;19;20149;-78
2023/01/13 12:36:21;;;;;;;2.17;1.00;;;;;7.40;93646.00;;;;7388417;19;20507;-77
2023/01/13 12:39:01;;;;;;;6.70;1.37;;;;;8.40;93678.00;;;;7390429;19;20124;-77
2023/01/13 12:44:36;;;;;;;5.83;1.40;;;;;7.70;93690.00;;;;7398184;19;20778;-77
2023/01/13 12:47:24;;;;;;;4.70;1.40;;;;;6.50;93669.00;;;;7396561;19;20149;-77
2023/01/13 12:50:21;;;;;;;5.17;1.43;;;;;7.00;93699.00;;;;7397966;19;20181;-76
2023/01/13 12:52:57;;;;;;;7.33;1.70;;;;;6.80;93691.00;;;;7401146;19;20614;-76
2023/01/13 12:55:33;;;;;;;6.97;1.50;;;;;7.00;93699.00;;;;7398572;19;20219;-75
2023/01/13 12:58:10;;;;;;;5.13;1.40;;;;;6.40;93698.00;;;;7404685;19;20575;-76
2023/01/13 13:00:47;;;;;;;9.67;1.40;;;;;6.40;93693.00;;;;7402852;19;20133;-77
2023/01/13 13:03:28;;;;;;;6.43;1.47;;;;;6.50;93686.00;;;;7400981;19;20176;-76
2023/01/13 13:06:35;;;;;;;9.47;1.50;;;;;6.40;93685.00;;;;7402693;19;20133;-75
2023/01/13 13:09:17;;;;;;;4.83;0.93;;;;;6.20;93692.00;;;;7403617;19;20145;-77
2023/01/13 13:14:39;;;;;;;5.43;1.50;;;;;7.10;93658.00;;;;7401411;19;20630;-77
2023/01/13 13:17:30;;;;;;;4.30;1.20;;;;;6.90;93667.00;;;;7403469;19;20583;-76
2023/01/13 13:21:00;;;;;;;4.07;1.13;;;;;6.00;93684.00;;;;7403081;19;20133;-76
2023/01/13 13:23:43;;;;;;;3.90;1.13;;;;;5.30;93683.00;;;;7401493;19;20639;-75
2023/01/13 13:26:18;;;;;;;6.23;1.60;;;;;4.90;93678.00;;;;7402939;19;20152;-74
2023/01/13 13:29:20;;;;;;;9.17;1.40;;;;;4.70;93687.00;;;;7404545;19;20461;-73
2023/01/13 13:32:00;;;;;;;7.03;1.33;;;;;4.70;93709.00;;;;7403941;19;20612;-74
2023/01/13 13:34:51;;;;;;;5.50;1.03;;;;;4.50;93713.00;;;;7401659;19;20530;-73
2023/01/13 13:37:30;;;;;;;1.70;0.83;;;;;4.20;93731.00;;;;7402837;19;20129;-73
2023/01/13 13:48:54;;;;;;;1.83;1.00;;;;;3.60;93756.00;;;;7404096;19;20137;-74
2023/01/13 13:51:39;;;;;;;2.83;0.77;;;;;3.70;93758.00;;;;7400700;19;20156;-79
2023/01/13 13:54:30;;;;;;;4.63;0.67;;;;;3.60;93773.00;;;;7402335;19;20218;-74
2023/01/13 13:57:04;;;;;;;2.00;0.73;;;;;3.40;93777.00;;;;7403626;19;20125;-75
2023/01/13 13:59:33;;;;;;;1.77;0.60;;;;;3.60;93783.00;;;;7402024;19;20208;-75
2023/01/13 14:02:30;;;;;;;2.20;0.63;;;;;3.70;93780.00;;;;7403045;19;20623;-76
2023/01/13 14:05:21;;;;;;;2.73;0.70;;;;;3.70;93759.00;;;;7400140;19;20152;-76
2023/01/13 14:08:09;;;;;;;2.53;0.73;;;;;3.50;93758.00;;;;7401548;19;20165;-74
2023/01/13 14:10:49;;;;;;;2.87;0.73;;;;;3.80;93776.00;;;;7402141;19;20141;-72
2023/01/13 14:13:24;;;;;;;1.20;0.40;;;;;3.80;93787.00;;;;7398088;19;20136;-75
2023/01/13 14:16:05;;;;;;;0.83;0.30;;;;;4.00;93790.00;;;;7400491;19;20140;-75
2023/01/13 14:18:49;;;;;;;0.40;0.30;;;;;4.00;93800.00;;;;7400067;19;20135;-76
2023/01/13 14:21:30;;;;;;;0.30;0.20;;;;;4.30;93783.00;;;;7399984;19;20489;-76
2023/01/13 14:24:15;;;;;;;2.17;0.73;;;;;4.20;93798.00;;;;7400084;19;20140;-75
2023/01/13 14:26:43;;;;;;;1.50;0.63;;;;;4.10;93800.00;;;;7400169;19;20129;-74
2023/01/13 14:29:22;;;;;;;0.53;0.50;;;;;4.00;93806.00;;;;7399507;19;20136;-75
2023/01/13 14:32:03;;;;;;;0.77;0.40;;;;;4.00;93799.00;;;;7400137;19;20132;-76